sensor_id;sensor_type;location;lat;lon;timestamp;P1;durP1;ratioP1;P2;durP2;ratioP2
72639;SDS011;60683;51.730;8.762;2023-07-29T00:01:00;4.10;;;1.83;;
72639;SDS011;60683;51.730;8.762;2023-07-29T00:03:27;3.95;;;2.08;;
72639;SDS011;60683;51.730;8.762;2023-07-29T00:05:55;3.65;;;1.75;;
72639;SDS011;60683;51.730;8.762;2023-07-29T00:08:23;5.50;;;2.03;;
72639;SDS011;60683;51.730;8.762;2023-07-29T00:10:52;4.05;;;2.20;;
72639;SDS011;60683;51.730;8.762;2023-07-29T00:13:19;3.45;;;1.80;;
72639;SDS011;60683;51.730;8.762;2023-07-29T00:15:47;3.33;;;1.88;;
72639;SDS011;60683;51.730;8.762;2023-07-29T00:18:14;4.68;;;1.90;;
72639;SDS011;60683;51.730;8.762;2023-07-29T00:20:41;4.50;;;2.30;;
72639;SDS011;60683;51.730;8.762;2023-07-29T00:23:09;5.40;;;2.10;;
72639;SDS011;60683;51.730;8.762;2023-07-29T00:25:36;4.57;;;2.35;;
72639;SDS011;60683;51.730;8.762;2023-07-29T00:28:05;3.40;;;1.80;;
72639;SDS011;60683;51.730;8.762;2023-07-29T00:30:32;3.92;;;1.70;;
72639;SDS011;60683;51.730;8.762;2023-07-29T00:33:00;4.22;;;2.03;;
72639;SDS011;60683;51.730;8.762;2023-07-29T00:35:27;4.40;;;1.60;;
72639;SDS011;60683;51.730;8.762;2023-07-29T00:37:55;5.03;;;1.75;;
72639;SDS011;60683;51.730;8.762;2023-07-29T00:40:22;3.97;;;1.80;;
72639;SDS011;60683;51.730;8.762;2023-07-29T00:42:50;3.10;;;1.45;;
72639;SDS011;60683;51.730;8.762;2023-07-29T00:45:19;3.67;;;1.80;;
72639;SDS011;60683;51.730;8.762;2023-07-29T00:47:46;3.15;;;1.50;;
72639;SDS011;60683;51.730;8.762;2023-07-29T00:50:14;5.13;;;1.83;;
72639;SDS011;60683;51.730;8.762;2023-07-29T00:52:42;3.38;;;1.48;;
72639;SDS011;60683;51.730;8.762;2023-07-29T00:55:10;3.15;;;1.40;;
72639;SDS011;60683;51.730;8.762;2023-07-29T00:57:37;3.40;;;1.70;;
72639;SDS011;60683;51.730;8.762;2023-07-29T01:00:07;3.60;;;1.55;;
72639;SDS011;60683;51.730;8.762;2023-07-29T01:02:36;2.72;;;1.25;;
72639;SDS011;60683;51.730;8.762;2023-07-29T01:05:04;4.07;;;1.55;;
72639;SDS011;60683;51.730;8.762;2023-07-29T01:07:33;3.03;;;1.40;;
72639;SDS011;60683;51.730;8.762;2023-07-29T01:10:07;3.13;;;1.63;;
72639;SDS011;60683;51.730;8.762;2023-07-29T01:12:45;2.92;;;1.27;;
72639;SDS011;60683;51.730;8.762;2023-07-29T01:15:16;3.20;;;1.50;;
72639;SDS011;60683;51.730;8.762;2023-07-29T01:17:49;4.80;;;1.52;;
72639;SDS011;60683;51.730;8.762;2023-07-29T01:20:21;3.75;;;1.63;;
72639;SDS011;60683;51.730;8.762;2023-07-29T01:22:50;3.17;;;1.50;;
72639;SDS011;60683;51.730;8.762;2023-07-29T01:25:20;3.22;;;1.35;;
72639;SDS011;60683;51.730;8.762;2023-07-29T01:27:48;4.00;;;1.80;;
72639;SDS011;60683;51.730;8.762;2023-07-29T01:30:18;3.78;;;1.70;;
72639;SDS011;60683;51.730;8.762;2023-07-29T01:32:48;4.40;;;1.70;;
72639;SDS011;60683;51.730;8.762;2023-07-29T01:35:21;3.90;;;1.98;;
72639;SDS011;60683;51.730;8.762;2023-07-29T01:37:52;4.55;;;2.00;;
72639;SDS011;60683;51.730;8.762;2023-07-29T01:40:23;3.58;;;1.77;;
72639;SDS011;60683;51.730;8.762;2023-07-29T01:42:53;4.80;;;1.55;;
72639;SDS011;60683;51.730;8.762;2023-07-29T01:45:22;3.55;;;1.65;;
72639;SDS011;60683;51.730;8.762;2023-07-29T01:47:50;3.10;;;1.38;;
72639;SDS011;60683;51.730;8.762;2023-07-29T01:50:18;3.78;;;1.58;;
72639;SDS011;60683;51.730;8.762;2023-07-29T01:52:45;4.15;;;1.60;;
72639;SDS011;60683;51.730;8.762;2023-07-29T01:55:13;3.88;;;2.15;;
72639;SDS011;60683;51.730;8.762;2023-07-29T01:57:41;3.40;;;1.52;;
72639;SDS011;60683;51.730;8.762;2023-07-29T02:00:11;3.90;;;1.85;;
72639;SDS011;60683;51.730;8.762;2023-07-29T02:02:38;3.40;;;1.70;;
72639;SDS011;60683;51.730;8.762;2023-07-29T02:05:06;4.57;;;1.85;;
72639;SDS011;60683;51.730;8.762;2023-07-29T02:07:34;3.40;;;1.63;;
72639;SDS011;60683;51.730;8.762;2023-07-29T02:10:02;3.28;;;1.52;;
72639;SDS011;60683;51.730;8.762;2023-07-29T02:12:29;4.25;;;1.83;;
72639;SDS011;60683;51.730;8.762;2023-07-29T02:14:58;3.25;;;1.90;;
72639;SDS011;60683;51.730;8.762;2023-07-29T02:17:25;4.28;;;2.00;;
72639;SDS011;60683;51.730;8.762;2023-07-29T02:19:53;3.28;;;1.70;;
72639;SDS011;60683;51.730;8.762;2023-07-29T02:22:20;3.47;;;1.90;;
72639;SDS011;60683;51.730;8.762;2023-07-29T02:24:47;3.75;;;1.85;;
72639;SDS011;60683;51.730;8.762;2023-07-29T02:27:15;3.83;;;2.03;;
72639;SDS011;60683;51.730;8.762;2023-07-29T02:29:42;3.80;;;1.75;;
72639;SDS011;60683;51.730;8.762;2023-07-29T02:32:11;3.60;;;1.95;;
72639;SDS011;60683;51.730;8.762;2023-07-29T02:34:38;3.63;;;1.60;;
72639;SDS011;60683;51.730;8.762;2023-07-29T02:37:06;4.28;;;1.83;;
72639;SDS011;60683;51.730;8.762;2023-07-29T02:39:34;4.22;;;1.60;;
72639;SDS011;60683;51.730;8.762;2023-07-29T02:42:01;3.70;;;1.70;;
72639;SDS011;60683;51.730;8.762;2023-07-29T02:44:29;3.78;;;1.45;;
72639;SDS011;60683;51.730;8.762;2023-07-29T02:46:56;4.35;;;2.50;;
72639;SDS011;60683;51.730;8.762;2023-07-29T02:49:26;3.67;;;1.90;;
72639;SDS011;60683;51.730;8.762;2023-07-29T02:51:53;3.50;;;1.85;;
72639;SDS011;60683;51.730;8.762;2023-07-29T02:54:21;3.13;;;1.67;;
72639;SDS011;60683;51.730;8.762;2023-07-29T02:56:49;3.92;;;1.98;;
72639;SDS011;60683;51.730;8.762;2023-07-29T02:59:18;4.07;;;1.70;;
72639;SDS011;60683;51.730;8.762;2023-07-29T03:01:46;3.17;;;1.48;;
72639;SDS011;60683;51.730;8.762;2023-07-29T03:04:13;3.97;;;1.98;;
72639;SDS011;60683;51.730;8.762;2023-07-29T03:06:42;2.95;;;1.35;;
72639;SDS011;60683;51.730;8.762;2023-07-29T03:09:09;3.65;;;1.60;;
72639;SDS011;60683;51.730;8.762;2023-07-29T03:11:37;3.45;;;1.83;;
72639;SDS011;60683;51.730;8.762;2023-07-29T03:14:04;3.38;;;1.75;;
72639;SDS011;60683;51.730;8.762;2023-07-29T03:16:32;3.47;;;1.70;;
72639;SDS011;60683;51.730;8.762;2023-07-29T03:18:59;2.78;;;1.35;;
72639;SDS011;60683;51.730;8.762;2023-07-29T03:21:26;4.55;;;1.90;;
72639;SDS011;60683;51.730;8.762;2023-07-29T03:23:55;3.70;;;1.80;;
72639;SDS011;60683;51.730;8.762;2023-07-29T03:26:23;3.97;;;1.67;;
72639;SDS011;60683;51.730;8.762;2023-07-29T03:28:51;3.88;;;1.63;;
72639;SDS011;60683;51.730;8.762;2023-07-29T03:31:19;3.47;;;1.52;;
72639;SDS011;60683;51.730;8.762;2023-07-29T03:33:46;3.65;;;1.70;;
72639;SDS011;60683;51.730;8.762;2023-07-29T03:36:14;4.32;;;2.13;;
72639;SDS011;60683;51.730;8.762;2023-07-29T03:38:42;3.30;;;1.70;;
72639;SDS011;60683;51.730;8.762;2023-07-29T03:41:12;3.95;;;2.20;;
72639;SDS011;60683;51.730;8.762;2023-07-29T03:43:39;3.47;;;1.83;;
72639;SDS011;60683;51.730;8.762;2023-07-29T03:46:07;4.78;;;1.85;;
72639;SDS011;60683;51.730;8.762;2023-07-29T03:48:34;3.42;;;1.77;;
72639;SDS011;60683;51.730;8.762;2023-07-29T03:51:02;5.55;;;1.98;;
72639;SDS011;60683;51.730;8.762;2023-07-29T03:53:30;4.53;;;1.73;;
72639;SDS011;60683;51.730;8.762;2023-07-29T03:55:57;6.03;;;2.00;;
72639;SDS011;60683;51.730;8.762;2023-07-29T03:58:26;4.85;;;1.80;;
72639;SDS011;60683;51.730;8.762;2023-07-29T04:00:54;3.30;;;1.80;;
72639;SDS011;60683;51.730;8.762;2023-07-29T04:03:21;4.53;;;2.10;;
72639;SDS011;60683;51.730;8.762;2023-07-29T04:05:49;4.15;;;2.00;;
72639;SDS011;60683;51.730;8.762;2023-07-29T04:08:18;3.83;;;2.40;;
72639;SDS011;60683;51.730;8.762;2023-07-29T04:10:46;4.85;;;2.17;;
72639;SDS011;60683;51.730;8.762;2023-07-29T04:13:13;3.50;;;1.85;;
72639;SDS011;60683;51.730;8.762;2023-07-29T04:15:42;3.85;;;2.10;;
72639;SDS011;60683;51.730;8.762;2023-07-29T04:18:10;4.85;;;2.28;;
72639;SDS011;60683;51.730;8.762;2023-07-29T04:20:37;4.47;;;2.33;;
72639;SDS011;60683;51.730;8.762;2023-07-29T04:23:05;3.53;;;1.60;;
72639;SDS011;60683;51.730;8.762;2023-07-29T04:25:33;3.95;;;2.05;;
72639;SDS011;60683;51.730;8.762;2023-07-29T04:28:00;4.60;;;1.83;;
72639;SDS011;60683;51.730;8.762;2023-07-29T04:30:29;3.63;;;1.90;;
72639;SDS011;60683;51.730;8.762;2023-07-29T04:32:58;4.38;;;2.22;;
72639;SDS011;60683;51.730;8.762;2023-07-29T04:35:26;3.72;;;1.75;;
72639;SDS011;60683;51.730;8.762;2023-07-29T04:37:53;4.45;;;2.20;;
72639;SDS011;60683;51.730;8.762;2023-07-29T04:40:21;5.32;;;1.92;;
72639;SDS011;60683;51.730;8.762;2023-07-29T04:42:49;3.65;;;1.90;;
72639;SDS011;60683;51.730;8.762;2023-07-29T04:45:18;3.35;;;1.75;;
72639;SDS011;60683;51.730;8.762;2023-07-29T04:47:46;4.10;;;1.77;;
72639;SDS011;60683;51.730;8.762;2023-07-29T04:50:15;5.82;;;1.77;;
72639;SDS011;60683;51.730;8.762;2023-07-29T04:52:42;3.88;;;1.75;;
72639;SDS011;60683;51.730;8.762;2023-07-29T04:55:10;3.53;;;1.88;;
72639;SDS011;60683;51.730;8.762;2023-07-29T04:57:37;3.30;;;2.00;;
72639;SDS011;60683;51.730;8.762;2023-07-29T05:00:05;4.30;;;2.10;;
72639;SDS011;60683;51.730;8.762;2023-07-29T05:02:33;4.47;;;1.80;;
72639;SDS011;60683;51.730;8.762;2023-07-29T05:05:01;5.07;;;1.98;;
72639;SDS011;60683;51.730;8.762;2023-07-29T05:07:31;5.45;;;1.80;;
72639;SDS011;60683;51.730;8.762;2023-07-29T05:09:58;3.85;;;1.73;;
72639;SDS011;60683;51.730;8.762;2023-07-29T05:12:26;3.55;;;1.75;;
72639;SDS011;60683;51.730;8.762;2023-07-29T05:14:55;4.32;;;1.70;;
72639;SDS011;60683;51.730;8.762;2023-07-29T05:17:23;4.10;;;2.13;;
72639;SDS011;60683;51.730;8.762;2023-07-29T05:19:50;5.63;;;2.00;;
72639;SDS011;60683;51.730;8.762;2023-07-29T05:22:18;4.05;;;2.17;;
72639;SDS011;60683;51.730;8.762;2023-07-29T05:24:47;3.95;;;1.77;;
72639;SDS011;60683;51.730;8.762;2023-07-29T05:27:15;3.95;;;1.80;;
72639;SDS011;60683;51.730;8.762;2023-07-29T05:29:43;3.88;;;1.92;;
72639;SDS011;60683;51.730;8.762;2023-07-29T05:32:10;4.45;;;1.98;;
72639;SDS011;60683;51.730;8.762;2023-07-29T05:34:38;3.60;;;1.52;;
72639;SDS011;60683;51.730;8.762;2023-07-29T05:37:05;2.88;;;1.30;;
72639;SDS011;60683;51.730;8.762;2023-07-29T05:39:33;3.33;;;1.40;;
72639;SDS011;60683;51.730;8.762;2023-07-29T05:42:01;3.72;;;1.70;;
72639;SDS011;60683;51.730;8.762;2023-07-29T05:44:29;3.17;;;1.48;;
72639;SDS011;60683;51.730;8.762;2023-07-29T05:46:57;3.35;;;1.60;;
72639;SDS011;60683;51.730;8.762;2023-07-29T05:49:24;5.35;;;1.45;;
72639;SDS011;60683;51.730;8.762;2023-07-29T05:51:52;2.75;;;1.40;;
72639;SDS011;60683;51.730;8.762;2023-07-29T05:54:20;4.43;;;1.98;;
72639;SDS011;60683;51.730;8.762;2023-07-29T05:56:47;2.83;;;1.40;;
72639;SDS011;60683;51.730;8.762;2023-07-29T05:59:16;3.25;;;1.40;;
72639;SDS011;60683;51.730;8.762;2023-07-29T06:01:43;3.50;;;1.75;;
72639;SDS011;60683;51.730;8.762;2023-07-29T06:04:11;2.95;;;1.30;;
72639;SDS011;60683;51.730;8.762;2023-07-29T06:06:38;3.35;;;1.42;;
72639;SDS011;60683;51.730;8.762;2023-07-29T06:09:06;2.90;;;1.58;;
72639;SDS011;60683;51.730;8.762;2023-07-29T06:11:33;2.55;;;1.40;;
72639;SDS011;60683;51.730;8.762;2023-07-29T06:14:01;3.75;;;1.35;;
72639;SDS011;60683;51.730;8.762;2023-07-29T06:16:29;3.45;;;1.50;;
72639;SDS011;60683;51.730;8.762;2023-07-29T06:18:57;3.80;;;1.52;;
72639;SDS011;60683;51.730;8.762;2023-07-29T06:21:24;4.22;;;1.50;;
72639;SDS011;60683;51.730;8.762;2023-07-29T06:23:52;4.75;;;1.40;;
72639;SDS011;60683;51.730;8.762;2023-07-29T06:26:19;3.10;;;1.33;;
72639;SDS011;60683;51.730;8.762;2023-07-29T06:28:47;3.47;;;1.70;;
72639;SDS011;60683;51.730;8.762;2023-07-29T06:31:14;3.80;;;1.70;;
72639;SDS011;60683;51.730;8.762;2023-07-29T06:33:44;3.85;;;1.60;;
72639;SDS011;60683;51.730;8.762;2023-07-29T06:36:12;3.75;;;1.70;;
72639;SDS011;60683;51.730;8.762;2023-07-29T06:38:40;3.78;;;1.42;;
72639;SDS011;60683;51.730;8.762;2023-07-29T06:41:07;4.88;;;1.77;;
72639;SDS011;60683;51.730;8.762;2023-07-29T06:43:35;3.97;;;1.52;;
72639;SDS011;60683;51.730;8.762;2023-07-29T06:46:02;7.53;;;1.80;;
72639;SDS011;60683;51.730;8.762;2023-07-29T06:48:30;3.38;;;1.65;;
72639;SDS011;60683;51.730;8.762;2023-07-29T06:51:00;3.95;;;1.70;;
72639;SDS011;60683;51.730;8.762;2023-07-29T06:53:28;3.10;;;1.52;;
72639;SDS011;60683;51.730;8.762;2023-07-29T06:55:55;3.20;;;1.67;;
72639;SDS011;60683;51.730;8.762;2023-07-29T06:58:24;4.80;;;1.67;;
72639;SDS011;60683;51.730;8.762;2023-07-29T07:00:51;3.28;;;1.45;;
72639;SDS011;60683;51.730;8.762;2023-07-29T07:03:18;3.63;;;1.83;;
72639;SDS011;60683;51.730;8.762;2023-07-29T07:05:46;3.90;;;1.90;;
72639;SDS011;60683;51.730;8.762;2023-07-29T07:08:15;4.38;;;1.67;;
72639;SDS011;60683;51.730;8.762;2023-07-29T07:10:42;3.60;;;1.80;;
72639;SDS011;60683;51.730;8.762;2023-07-29T07:13:09;4.43;;;1.80;;
72639;SDS011;60683;51.730;8.762;2023-07-29T07:15:37;4.07;;;2.28;;
72639;SDS011;60683;51.730;8.762;2023-07-29T07:18:04;6.25;;;2.40;;
72639;SDS011;60683;51.730;8.762;2023-07-29T07:20:32;4.05;;;1.50;;
72639;SDS011;60683;51.730;8.762;2023-07-29T07:22:59;4.10;;;1.92;;
72639;SDS011;60683;51.730;8.762;2023-07-29T07:25:28;4.03;;;1.85;;
72639;SDS011;60683;51.730;8.762;2023-07-29T07:27:55;4.32;;;2.47;;
72639;SDS011;60683;51.730;8.762;2023-07-29T07:30:23;4.22;;;2.10;;
72639;SDS011;60683;51.730;8.762;2023-07-29T07:32:50;4.80;;;2.38;;
72639;SDS011;60683;51.730;8.762;2023-07-29T07:35:18;5.25;;;3.08;;
72639;SDS011;60683;51.730;8.762;2023-07-29T07:37:45;6.78;;;3.53;;
72639;SDS011;60683;51.730;8.762;2023-07-29T07:40:13;6.30;;;3.60;;
72639;SDS011;60683;51.730;8.762;2023-07-29T07:42:42;5.68;;;3.80;;
72639;SDS011;60683;51.730;8.762;2023-07-29T07:45:09;7.00;;;4.32;;
72639;SDS011;60683;51.730;8.762;2023-07-29T07:47:37;9.77;;;4.55;;
72639;SDS011;60683;51.730;8.762;2023-07-29T07:50:05;8.63;;;4.70;;
72639;SDS011;60683;51.730;8.762;2023-07-29T07:52:32;8.80;;;4.70;;
72639;SDS011;60683;51.730;8.762;2023-07-29T07:55:00;8.35;;;5.63;;
72639;SDS011;60683;51.730;8.762;2023-07-29T07:57:27;9.35;;;5.32;;
72639;SDS011;60683;51.730;8.762;2023-07-29T07:59:56;10.05;;;6.00;;
72639;SDS011;60683;51.730;8.762;2023-07-29T08:02:23;9.25;;;5.13;;
72639;SDS011;60683;51.730;8.762;2023-07-29T08:04:51;9.07;;;5.30;;
72639;SDS011;60683;51.730;8.762;2023-07-29T08:07:18;8.75;;;5.57;;
72639;SDS011;60683;51.730;8.762;2023-07-29T08:09:46;8.13;;;5.28;;
72639;SDS011;60683;51.730;8.762;2023-07-29T08:12:13;9.60;;;6.00;;
72639;SDS011;60683;51.730;8.762;2023-07-29T08:14:41;9.52;;;5.20;;
72639;SDS011;60683;51.730;8.762;2023-07-29T08:17:09;8.98;;;5.00;;
72639;SDS011;60683;51.730;8.762;2023-07-29T08:19:37;9.07;;;5.28;;
72639;SDS011;60683;51.730;8.762;2023-07-29T08:22:04;9.77;;;4.82;;
72639;SDS011;60683;51.730;8.762;2023-07-29T08:24:32;8.07;;;5.00;;
72639;SDS011;60683;51.730;8.762;2023-07-29T08:26:59;8.68;;;4.93;;
72639;SDS011;60683;51.730;8.762;2023-07-29T08:29:27;7.25;;;3.92;;
72639;SDS011;60683;51.730;8.762;2023-07-29T08:31:54;9.73;;;4.60;;
72639;SDS011;60683;51.730;8.762;2023-07-29T08:34:23;6.50;;;3.47;;
72639;SDS011;60683;51.730;8.762;2023-07-29T08:36:50;7.50;;;4.22;;
72639;SDS011;60683;51.730;8.762;2023-07-29T08:39:18;6.03;;;3.22;;
72639;SDS011;60683;51.730;8.762;2023-07-29T08:41:46;7.22;;;4.30;;
72639;SDS011;60683;51.730;8.762;2023-07-29T08:44:18;7.93;;;4.00;;
72639;SDS011;60683;51.730;8.762;2023-07-29T08:46:49;7.18;;;3.88;;
72639;SDS011;60683;51.730;8.762;2023-07-29T08:49:17;8.40;;;4.97;;
72639;SDS011;60683;51.730;8.762;2023-07-29T08:51:47;6.45;;;4.28;;
72639;SDS011;60683;51.730;8.762;2023-07-29T08:54:15;7.13;;;4.00;;
72639;SDS011;60683;51.730;8.762;2023-07-29T08:56:43;7.35;;;4.30;;
72639;SDS011;60683;51.730;8.762;2023-07-29T08:59:11;8.68;;;5.10;;
72639;SDS011;60683;51.730;8.762;2023-07-29T09:01:39;6.60;;;4.93;;
72639;SDS011;60683;51.730;8.762;2023-07-29T09:04:06;8.02;;;5.35;;
72639;SDS011;60683;51.730;8.762;2023-07-29T09:06:34;7.25;;;5.28;;
72639;SDS011;60683;51.730;8.762;2023-07-29T09:09:04;8.15;;;4.80;;
72639;SDS011;60683;51.730;8.762;2023-07-29T09:11:31;7.30;;;4.15;;
72639;SDS011;60683;51.730;8.762;2023-07-29T09:14:00;7.82;;;5.00;;
72639;SDS011;60683;51.730;8.762;2023-07-29T09:16:27;5.55;;;3.88;;
72639;SDS011;60683;51.730;8.762;2023-07-29T09:18:55;6.85;;;4.88;;
72639;SDS011;60683;51.730;8.762;2023-07-29T09:21:23;6.15;;;4.00;;
72639;SDS011;60683;51.730;8.762;2023-07-29T09:23:52;5.43;;;3.80;;
72639;SDS011;60683;51.730;8.762;2023-07-29T09:26:23;6.10;;;3.03;;
72639;SDS011;60683;51.730;8.762;2023-07-29T09:28:51;5.40;;;2.33;;
72639;SDS011;60683;51.730;8.762;2023-07-29T09:31:19;4.30;;;2.22;;
72639;SDS011;60683;51.730;8.762;2023-07-29T09:33:48;5.18;;;2.65;;
72639;SDS011;60683;51.730;8.762;2023-07-29T09:36:15;4.30;;;2.47;;
72639;SDS011;60683;51.730;8.762;2023-07-29T09:38:43;5.30;;;2.65;;
72639;SDS011;60683;51.730;8.762;2023-07-29T09:41:11;4.22;;;2.17;;
72639;SDS011;60683;51.730;8.762;2023-07-29T09:43:41;5.25;;;2.35;;
72639;SDS011;60683;51.730;8.762;2023-07-29T09:46:08;3.83;;;2.60;;
72639;SDS011;60683;51.730;8.762;2023-07-29T09:48:38;4.78;;;2.50;;
72639;SDS011;60683;51.730;8.762;2023-07-29T09:51:09;7.70;;;2.92;;
72639;SDS011;60683;51.730;8.762;2023-07-29T09:53:42;4.20;;;2.15;;
72639;SDS011;60683;51.730;8.762;2023-07-29T09:56:09;3.50;;;1.85;;
72639;SDS011;60683;51.730;8.762;2023-07-29T09:58:37;3.80;;;2.17;;
72639;SDS011;60683;51.730;8.762;2023-07-29T10:01:06;3.92;;;1.95;;
72639;SDS011;60683;51.730;8.762;2023-07-29T10:03:34;3.90;;;1.98;;
72639;SDS011;60683;51.730;8.762;2023-07-29T10:06:03;6.65;;;1.73;;
72639;SDS011;60683;51.730;8.762;2023-07-29T10:08:31;4.18;;;1.67;;
72639;SDS011;60683;51.730;8.762;2023-07-29T10:11:01;4.13;;;1.70;;
72639;SDS011;60683;51.730;8.762;2023-07-29T10:13:29;4.13;;;1.70;;
72639;SDS011;60683;51.730;8.762;2023-07-29T10:15:56;3.55;;;1.60;;
72639;SDS011;60683;51.730;8.762;2023-07-29T10:18:25;2.95;;;1.30;;
72639;SDS011;60683;51.730;8.762;2023-07-29T10:20:53;1.70;;;0.90;;
72639;SDS011;60683;51.730;8.762;2023-07-29T10:23:24;1.63;;;0.70;;
72639;SDS011;60683;51.730;8.762;2023-07-29T10:25:54;2.70;;;1.10;;
72639;SDS011;60683;51.730;8.762;2023-07-29T10:28:25;2.50;;;1.00;;
72639;SDS011;60683;51.730;8.762;2023-07-29T10:30:56;3.20;;;1.10;;
72639;SDS011;60683;51.730;8.762;2023-07-29T10:33:24;2.03;;;0.82;;
72639;SDS011;60683;51.730;8.762;2023-07-29T10:35:53;1.90;;;0.70;;
72639;SDS011;60683;51.730;8.762;2023-07-29T10:38:21;2.97;;;1.10;;
72639;SDS011;60683;51.730;8.762;2023-07-29T10:40:51;2.15;;;0.90;;
72639;SDS011;60683;51.730;8.762;2023-07-29T10:43:24;1.98;;;0.73;;
72639;SDS011;60683;51.730;8.762;2023-07-29T10:45:53;2.42;;;0.82;;
72639;SDS011;60683;51.730;8.762;2023-07-29T10:48:42;3.42;;;1.00;;
72639;SDS011;60683;51.730;8.762;2023-07-29T10:51:21;1.92;;;0.75;;
72639;SDS011;60683;51.730;8.762;2023-07-29T10:53:51;2.08;;;0.80;;
72639;SDS011;60683;51.730;8.762;2023-07-29T10:56:24;1.92;;;0.80;;
72639;SDS011;60683;51.730;8.762;2023-07-29T10:58:54;2.03;;;0.90;;
72639;SDS011;60683;51.730;8.762;2023-07-29T11:01:26;1.83;;;0.82;;
72639;SDS011;60683;51.730;8.762;2023-07-29T11:09:40;2.25;;;1.40;;
72639;SDS011;60683;51.730;8.762;2023-07-29T11:15:03;3.10;;;1.10;;
72639;SDS011;60683;51.730;8.762;2023-07-29T11:17:38;3.30;;;0.90;;
72639;SDS011;60683;51.730;8.762;2023-07-29T11:20:09;1.88;;;1.00;;
72639;SDS011;60683;51.730;8.762;2023-07-29T11:22:36;2.42;;;1.00;;
72639;SDS011;60683;51.730;8.762;2023-07-29T11:25:05;2.42;;;1.10;;
72639;SDS011;60683;51.730;8.762;2023-07-29T11:27:34;2.70;;;1.30;;
72639;SDS011;60683;51.730;8.762;2023-07-29T11:30:03;3.15;;;1.10;;
72639;SDS011;60683;51.730;8.762;2023-07-29T11:32:32;2.15;;;1.00;;
72639;SDS011;60683;51.730;8.762;2023-07-29T11:35:03;2.10;;;0.90;;
72639;SDS011;60683;51.730;8.762;2023-07-29T11:37:33;2.50;;;1.10;;
72639;SDS011;60683;51.730;8.762;2023-07-29T11:40:02;3.15;;;1.38;;
72639;SDS011;60683;51.730;8.762;2023-07-29T11:42:31;2.80;;;1.10;;
72639;SDS011;60683;51.730;8.762;2023-07-29T11:44:59;2.05;;;0.90;;
72639;SDS011;60683;51.730;8.762;2023-07-29T11:47:27;2.50;;;1.08;;
72639;SDS011;60683;51.730;8.762;2023-07-29T11:49:57;2.58;;;1.30;;
72639;SDS011;60683;51.730;8.762;2023-07-29T11:52:26;2.92;;;1.33;;
72639;SDS011;60683;51.730;8.762;2023-07-29T11:54:56;2.38;;;0.82;;
72639;SDS011;60683;51.730;8.762;2023-07-29T11:57:24;2.75;;;1.27;;
72639;SDS011;60683;51.730;8.762;2023-07-29T11:59:55;2.70;;;1.00;;
72639;SDS011;60683;51.730;8.762;2023-07-29T12:02:23;2.30;;;1.00;;
72639;SDS011;60683;51.730;8.762;2023-07-29T12:04:51;2.45;;;1.20;;
72639;SDS011;60683;51.730;8.762;2023-07-29T12:07:19;3.78;;;1.40;;
72639;SDS011;60683;51.730;8.762;2023-07-29T12:09:48;3.08;;;1.65;;
72639;SDS011;60683;51.730;8.762;2023-07-29T12:12:18;2.75;;;1.17;;
72639;SDS011;60683;51.730;8.762;2023-07-29T12:14:46;2.30;;;1.00;;
72639;SDS011;60683;51.730;8.762;2023-07-29T12:17:14;2.58;;;1.25;;
72639;SDS011;60683;51.730;8.762;2023-07-29T12:19:43;4.03;;;1.52;;
72639;SDS011;60683;51.730;8.762;2023-07-29T12:22:10;2.65;;;1.13;;
72639;SDS011;60683;51.730;8.762;2023-07-29T12:24:39;2.55;;;1.15;;
72639;SDS011;60683;51.730;8.762;2023-07-29T12:27:10;2.80;;;1.20;;
72639;SDS011;60683;51.730;8.762;2023-07-29T12:29:41;2.75;;;1.33;;
72639;SDS011;60683;51.730;8.762;2023-07-29T12:32:09;4.47;;;1.50;;
72639;SDS011;60683;51.730;8.762;2023-07-29T12:34:38;2.67;;;1.50;;
72639;SDS011;60683;51.730;8.762;2023-07-29T12:37:06;2.97;;;1.50;;
72639;SDS011;60683;51.730;8.762;2023-07-29T12:39:35;3.05;;;1.60;;
72639;SDS011;60683;51.730;8.762;2023-07-29T12:42:07;2.55;;;1.25;;
72639;SDS011;60683;51.730;8.762;2023-07-29T12:44:35;2.65;;;1.42;;
72639;SDS011;60683;51.730;8.762;2023-07-29T12:47:04;3.45;;;1.77;;
72639;SDS011;60683;51.730;8.762;2023-07-29T12:49:34;4.20;;;1.55;;
72639;SDS011;60683;51.730;8.762;2023-07-29T12:52:02;4.07;;;1.80;;
72639;SDS011;60683;51.730;8.762;2023-07-29T12:54:29;4.30;;;2.03;;
72639;SDS011;60683;51.730;8.762;2023-07-29T12:56:56;3.85;;;2.10;;
72639;SDS011;60683;51.730;8.762;2023-07-29T12:59:24;3.97;;;1.63;;
72639;SDS011;60683;51.730;8.762;2023-07-29T13:01:52;3.80;;;1.73;;
72639;SDS011;60683;51.730;8.762;2023-07-29T13:04:20;5.00;;;1.88;;
72639;SDS011;60683;51.730;8.762;2023-07-29T13:06:48;4.10;;;1.80;;
72639;SDS011;60683;51.730;8.762;2023-07-29T13:09:15;3.65;;;1.80;;
72639;SDS011;60683;51.730;8.762;2023-07-29T13:11:42;2.78;;;1.23;;
72639;SDS011;60683;51.730;8.762;2023-07-29T13:14:10;3.35;;;1.45;;
72639;SDS011;60683;51.730;8.762;2023-07-29T13:16:37;4.40;;;1.48;;
72639;SDS011;60683;51.730;8.762;2023-07-29T13:19:05;2.95;;;1.30;;
72639;SDS011;60683;51.730;8.762;2023-07-29T13:21:34;4.75;;;1.52;;
72639;SDS011;60683;51.730;8.762;2023-07-29T13:24:01;4.75;;;2.05;;
72639;SDS011;60683;51.730;8.762;2023-07-29T13:26:29;2.95;;;1.33;;
72639;SDS011;60683;51.730;8.762;2023-07-29T13:28:56;3.53;;;1.50;;
72639;SDS011;60683;51.730;8.762;2023-07-29T13:31:24;2.75;;;1.33;;
72639;SDS011;60683;51.730;8.762;2023-07-29T13:33:51;2.90;;;1.40;;
72639;SDS011;60683;51.730;8.762;2023-07-29T13:36:18;2.85;;;1.50;;
72639;SDS011;60683;51.730;8.762;2023-07-29T13:38:47;3.17;;;1.55;;
72639;SDS011;60683;51.730;8.762;2023-07-29T13:41:14;2.35;;;1.10;;
72639;SDS011;60683;51.730;8.762;2023-07-29T13:43:43;2.80;;;1.27;;
72639;SDS011;60683;51.730;8.762;2023-07-29T13:46:10;2.58;;;1.00;;
72639;SDS011;60683;51.730;8.762;2023-07-29T13:48:37;2.60;;;1.10;;
72639;SDS011;60683;51.730;8.762;2023-07-29T13:51:05;3.13;;;1.20;;
72639;SDS011;60683;51.730;8.762;2023-07-29T13:53:32;2.90;;;1.33;;
72639;SDS011;60683;51.730;8.762;2023-07-29T13:56:01;3.13;;;1.10;;
72639;SDS011;60683;51.730;8.762;2023-07-29T13:58:29;3.45;;;1.50;;
72639;SDS011;60683;51.730;8.762;2023-07-29T14:00:57;2.55;;;1.20;;
72639;SDS011;60683;51.730;8.762;2023-07-29T14:03:24;2.72;;;1.20;;
72639;SDS011;60683;51.730;8.762;2023-07-29T14:05:51;3.10;;;1.40;;
72639;SDS011;60683;51.730;8.762;2023-07-29T14:08:19;3.72;;;1.23;;
72639;SDS011;60683;51.730;8.762;2023-07-29T14:10:48;2.20;;;1.10;;
72639;SDS011;60683;51.730;8.762;2023-07-29T14:13:17;3.60;;;1.45;;
72639;SDS011;60683;51.730;8.762;2023-07-29T14:15:45;2.78;;;1.27;;
72639;SDS011;60683;51.730;8.762;2023-07-29T14:18:12;2.30;;;1.20;;
72639;SDS011;60683;51.730;8.762;2023-07-29T14:20:40;3.50;;;1.00;;
72639;SDS011;60683;51.730;8.762;2023-07-29T14:23:07;2.90;;;1.50;;
72639;SDS011;60683;51.730;8.762;2023-07-29T14:25:35;2.70;;;1.20;;
72639;SDS011;60683;51.730;8.762;2023-07-29T14:28:04;4.00;;;1.40;;
72639;SDS011;60683;51.730;8.762;2023-07-29T14:30:32;3.25;;;1.60;;
72639;SDS011;60683;51.730;8.762;2023-07-29T14:35:28;2.85;;;1.20;;
72639;SDS011;60683;51.730;8.762;2023-07-29T14:37:56;3.25;;;1.50;;
72639;SDS011;60683;51.730;8.762;2023-07-29T14:40:23;3.58;;;1.40;;
72639;SDS011;60683;51.730;8.762;2023-07-29T14:42:50;3.70;;;1.35;;
72639;SDS011;60683;51.730;8.762;2023-07-29T14:45:18;3.03;;;1.23;;
72639;SDS011;60683;51.730;8.762;2023-07-29T14:47:47;2.13;;;1.02;;
72639;SDS011;60683;51.730;8.762;2023-07-29T14:50:14;2.70;;;1.20;;
72639;SDS011;60683;51.730;8.762;2023-07-29T14:52:41;2.97;;;1.50;;
72639;SDS011;60683;51.730;8.762;2023-07-29T14:55:09;3.53;;;1.40;;
72639;SDS011;60683;51.730;8.762;2023-07-29T14:57:36;3.90;;;1.60;;
72639;SDS011;60683;51.730;8.762;2023-07-29T15:00:04;2.75;;;1.42;;
72639;SDS011;60683;51.730;8.762;2023-07-29T15:02:33;3.15;;;1.48;;
72639;SDS011;60683;51.730;8.762;2023-07-29T15:05:02;3.20;;;1.50;;